Time;durP1;ratioP1;P1;durP2;ratioP2;P2;SDS_P1;SDS_P2;PMS_P1;PMS_P2;Temp;Humidity;BMP_temperature;BMP_pressure;BME280_temperature;BME280_humidity;BME280_pressure;Samples;Min_cycle;Max_cycle;Signal;HPM_P1;HPM_P2
2022/01/28 00:01:23;;;;;;;8.10;6.00;;;8.00;68.00;;;;;;4968407;28;20831;-42
2022/01/28 00:03:48;;;;;;;7.23;5.67;;;8.00;67.40;;;;;;4970281;28;20451;-42
2022/01/28 00:06:15;;;;;;;8.80;6.60;;;7.90;67.80;;;;;;4967547;28;20445;-43
2022/01/28 00:08:41;;;;;;;8.60;6.60;;;7.80;67.70;;;;;;4967415;28;20195;-42
2022/01/28 00:11:06;;;;;;;7.40;5.90;;;7.60;68.30;;;;;;4970741;28;20541;-43
2022/01/28 00:16:30;;;;;;;9.30;6.43;;;7.50;68.90;;;;;;4968884;28;20577;-42
2022/01/28 00:19:10;;;;;;;8.40;6.23;;;7.60;69.00;;;;;;4966674;28;20936;-42
2022/01/28 00:38:05;;;;;;;11.00;6.60;;;7.90;68.30;;;;;;4964418;28;20493;-42
2022/01/28 00:40:32;;;;;;;8.53;6.80;;;8.20;67.40;;;;;;4969709;28;20485;-42
2022/01/28 00:42:58;;;;;;;8.40;6.13;;;8.30;66.80;;;;;;4960783;28;20509;-42
2022/01/28 00:45:24;;;;;;;8.07;6.00;;;8.40;66.20;;;;;;4971063;28;20829;-43
2022/01/28 00:47:50;;;;;;;7.03;6.20;;;8.50;65.80;;;;;;4971137;28;20191;-43
2022/01/28 00:50:16;;;;;;;6.63;5.93;;;8.60;65.70;;;;;;4972934;28;21013;-43
2022/01/28 00:52:42;;;;;;;7.67;6.03;;;8.60;65.40;;;;;;4973406;28;20192;-42
2022/01/28 00:55:08;;;;;;;8.30;5.80;;;8.80;65.40;;;;;;4977953;28;20838;-42
2022/01/28 00:57:33;;;;;;;5.80;4.80;;;8.90;64.40;;;;;;4967379;28;20323;-43
2022/01/28 00:59:59;;;;;;;7.97;6.40;;;8.70;64.70;;;;;;4970982;28;20436;-43
2022/01/28 01:02:25;;;;;;;8.87;6.30;;;8.80;64.70;;;;;;4972207;28;20608;-42
2022/01/28 01:04:51;;;;;;;7.20;6.00;;;8.70;64.60;;;;;;4973048;28;20274;-42
2022/01/28 01:07:16;;;;;;;6.10;5.50;;;8.60;64.50;;;;;;4971094;28;20554;-43
2022/01/28 01:09:43;;;;;;;7.93;6.23;;;8.50;64.90;;;;;;4973562;28;20195;-42
2022/01/28 01:12:11;;;;;;;6.33;5.10;;;8.60;64.80;;;;;;4972536;28;20206;-43
2022/01/28 01:14:36;;;;;;;6.33;5.60;;;8.80;65.10;;;;;;4969741;28;20576;-42
2022/01/28 01:17:16;;;;;;;7.90;5.20;;;8.70;64.20;;;;;;4969571;28;20442;-42
2022/01/28 01:19:46;;;;;;;7.03;5.27;;;8.60;63.60;;;;;;4972437;28;20258;-43
2022/01/28 01:22:12;;;;;;;6.47;5.47;;;8.30;64.40;;;;;;4970057;28;20454;-42
2022/01/28 01:24:48;;;;;;;6.60;5.10;;;8.30;65.20;;;;;;4972103;28;20454;-42
2022/01/28 01:27:14;;;;;;;7.30;4.90;;;8.20;65.00;;;;;;4974299;28;20953;-42
2022/01/28 01:29:44;;;;;;;7.87;5.20;;;8.10;65.10;;;;;;4970194;28;20457;-42
2022/01/28 01:32:13;;;;;;;5.83;5.33;;;8.10;65.40;;;;;;4972366;28;20451;-42
2022/01/28 01:34:39;;;;;;;7.13;6.10;;;8.20;65.50;;;;;;4975374;28;20489;-42
2022/01/28 01:37:05;;;;;;;8.03;5.67;;;8.20;65.10;;;;;;4970110;28;20451;-42
2022/01/28 01:39:34;;;;;;;7.57;5.33;;;8.30;65.00;;;;;;4969462;28;20935;-42
2022/01/28 01:42:10;;;;;;;6.70;5.03;;;8.30;64.40;;;;;;4968997;28;20296;-42
2022/01/28 01:52:52;;;;;;;8.17;5.03;;;7.90;65.40;;;;;;4971724;28;20454;-42
2022/01/28 01:55:18;;;;;;;7.80;6.23;;;8.00;65.10;;;;;;4972545;28;20490;-43
2022/01/28 01:57:44;;;;;;;8.37;5.77;;;8.30;64.70;;;;;;4971094;28;20282;-42
2022/01/28 02:00:12;;;;;;;6.50;5.37;;;8.40;64.30;;;;;;4972752;28;20553;-42
2022/01/28 02:02:37;;;;;;;6.77;5.77;;;8.50;63.60;;;;;;4971803;28;20551;-42
2022/01/28 02:05:04;;;;;;;7.00;5.50;;;8.50;63.50;;;;;;4971619;28;20533;-42
2022/01/28 02:07:30;;;;;;;8.10;5.30;;;8.50;63.20;;;;;;4970943;28;20205;-42
2022/01/28 02:09:55;;;;;;;10.43;5.60;;;8.40;63.30;;;;;;4971908;28;20438;-42
2022/01/28 02:12:21;;;;;;;7.40;5.80;;;8.30;63.50;;;;;;4966116;28;20215;-42
2022/01/28 02:14:46;;;;;;;7.77;6.50;;;8.20;64.00;;;;;;4970764;28;20684;-43
2022/01/28 02:17:12;;;;;;;7.90;5.67;;;8.20;64.00;;;;;;4968199;28;20206;-43
2022/01/28 02:19:39;;;;;;;7.50;6.53;;;8.30;64.60;;;;;;4971461;28;20702;-44
2022/01/28 02:22:05;;;;;;;6.90;5.80;;;8.30;63.70;;;;;;4970674;28;20222;-43
2022/01/28 02:24:39;;;;;;;12.23;6.07;;;8.20;63.80;;;;;;4978240;28;20961;-44
2022/01/28 02:27:05;;;;;;;8.20;6.33;;;8.30;63.90;;;;;;4969210;28;20502;-44
2022/01/28 02:29:33;;;;;;;6.60;5.90;;;8.40;63.70;;;;;;4970527;28;20947;-43
2022/01/28 02:32:02;;;;;;;7.20;6.20;;;8.50;63.20;;;;;;4968544;28;20199;-44
2022/01/28 02:34:28;;;;;;;14.00;5.80;;;8.70;62.40;;;;;;4966400;28;20498;-43
2022/01/28 02:36:55;;;;;;;10.27;6.03;;;8.80;61.80;;;;;;4971526;28;20455;-43
2022/01/28 02:39:21;;;;;;;7.17;5.60;;;8.90;61.30;;;;;;4972415;28;20203;-43
2022/01/28 02:41:50;;;;;;;8.90;5.97;;;8.90;61.20;;;;;;4970971;28;21285;-43
2022/01/28 02:44:24;;;;;;;7.90;5.77;;;8.90;60.90;;;;;;4973681;28;20205;-43
2022/01/28 02:47:02;;;;;;;7.17;5.80;;;8.80;61.10;;;;;;4970142;28;20831;-43
2022/01/28 02:49:34;;;;;;;10.47;6.07;;;8.80;61.30;;;;;;4970821;28;20458;-42
2022/01/28 02:52:01;;;;;;;9.43;6.20;;;8.90;61.50;;;;;;4970872;28;20451;-43
2022/01/28 02:54:27;;;;;;;7.13;5.60;;;8.80;61.70;;;;;;4971017;28;20490;-43
2022/01/28 02:56:58;;;;;;;8.03;6.23;;;8.70;61.80;;;;;;4970943;28;20498;-43
2022/01/28 02:59:24;;;;;;;8.17;5.47;;;8.90;61.70;;;;;;4970586;28;20572;-45
2022/01/28 03:01:49;;;;;;;5.60;4.83;;;8.80;61.30;;;;;;4971500;28;20443;-45
2022/01/28 03:06:59;;;;;;;7.07;5.90;;;8.60;61.90;;;;;;4964783;28;20197;-46
2022/01/28 03:09:34;;;;;;;7.07;5.63;;;8.50;62.30;;;;;;4968852;28;20446;-43
2022/01/28 03:12:13;;;;;;;8.03;6.73;;;8.50;62.20;;;;;;4970151;28;20721;-43
2022/01/28 03:15:00;;;;;;;6.60;5.30;;;8.40;62.80;;;;;;4970434;28;20490;-43
2022/01/28 03:17:50;;;;;;;8.50;5.40;;;8.30;62.90;;;;;;4967388;28;20450;-43
2022/01/28 03:20:35;;;;;;;6.70;4.50;;;8.30;63.20;;;;;;4961995;28;20454;-43
2022/01/28 03:23:01;;;;;;;9.20;5.27;;;8.30;62.90;;;;;;4966450;28;20447;-43
2022/01/28 03:25:27;;;;;;;7.50;5.57;;;8.30;62.90;;;;;;4970105;28;20844;-43
2022/01/28 03:27:58;;;;;;;6.47;5.20;;;8.40;62.80;;;;;;4981057;28;20206;-45
2022/01/28 03:30:24;;;;;;;5.90;5.00;;;8.50;62.50;;;;;;4968127;28;20202;-43
2022/01/28 03:32:50;;;;;;;6.53;5.63;;;8.50;62.20;;;;;;4967310;28;20434;-43
2022/01/28 03:35:17;;;;;;;7.50;5.47;;;8.50;62.00;;;;;;4968802;28;20386;-43
2022/01/28 03:37:43;;;;;;;10.70;4.87;;;8.30;62.10;;;;;;4971363;28;20451;-44
2022/01/28 03:40:10;;;;;;;6.70;5.20;;;8.30;62.50;;;;;;4973019;28;20928;-44
2022/01/28 03:42:36;;;;;;;7.20;5.70;;;8.30;62.40;;;;;;4968105;28;20458;-44
2022/01/28 03:45:03;;;;;;;5.33;4.60;;;8.40;62.70;;;;;;4969593;28;20443;-43
2022/01/28 03:47:28;;;;;;;9.70;5.80;;;8.30;62.40;;;;;;4971178;28;20537;-43
2022/01/28 03:49:54;;;;;;;7.40;5.87;;;8.40;62.20;;;;;;4971081;28;20497;-43
2022/01/28 03:52:19;;;;;;;8.00;5.60;;;8.40;62.20;;;;;;4971629;28;20198;-45
2022/01/28 03:54:45;;;;;;;9.43;5.87;;;8.40;62.30;;;;;;4971139;28;20231;-43
2022/01/28 03:57:10;;;;;;;6.17;5.23;;;8.20;62.30;;;;;;4971583;28;20230;-43
2022/01/28 03:59:36;;;;;;;7.20;5.30;;;8.10;62.70;;;;;;4972358;28;20682;-43
2022/01/28 04:02:05;;;;;;;7.03;5.77;;;8.20;62.80;;;;;;4969189;28;20408;-43
2022/01/28 04:12:35;;;;;;;6.67;5.30;;;8.10;63.40;;;;;;4971350;28;20461;-43
2022/01/28 04:17:26;;;;;;;6.03;5.00;;;8.20;62.80;;;;;;4972198;28;20529;-42
2022/01/28 04:19:52;;;;;;;7.87;5.60;;;8.10;62.50;;;;;;4975135;28;20198;-42
2022/01/28 04:22:19;;;;;;;7.67;6.00;;;8.00;63.00;;;;;;4976406;28;20195;-43
2022/01/28 04:24:45;;;;;;;8.53;5.97;;;7.90;63.50;;;;;;4975609;28;20427;-43
2022/01/28 04:27:11;;;;;;;6.93;5.83;;;8.10;63.80;;;;;;4975079;28;20438;-43
2022/01/28 04:29:37;;;;;;;7.30;5.70;;;7.80;63.60;;;;;;4974218;28;20526;-44
2022/01/28 04:32:03;;;;;;;8.80;6.30;;;7.70;64.00;;;;;;4977018;28;20191;-43
2022/01/28 04:34:29;;;;;;;7.00;5.70;;;7.90;64.30;;;;;;4975006;28;22342;-44
2022/01/28 04:39:55;;;;;;;8.70;5.47;;;7.80;64.10;;;;;;4949706;28;20439;-44
2022/01/28 04:45:10;;;;;;;9.40;6.80;;;8.20;63.40;;;;;;4976637;28;20442;-44
2022/01/28 04:47:45;;;;;;;8.40;5.90;;;8.20;63.10;;;;;;4964922;28;20474;-45
2022/01/28 04:57:54;;;;;;;7.90;5.83;;;8.50;61.90;;;;;;4966228;28;20450;-43
2022/01/28 05:00:36;;;;;;;7.00;5.50;;;8.50;61.70;;;;;;4970823;28;20206;-43
2022/01/28 05:06:11;;;;;;;8.23;6.00;;;8.30;61.30;;;;;;4971460;28;20950;-43
2022/01/28 05:25:30;;;;;;;10.10;5.93;;;8.20;62.20;;;;;;4968871;28;20457;-43
2022/01/28 05:27:06;;;;;;;12.03;7.70;;;8.20;61.80;;;;;;4967550;28;20961;-45
2022/01/28 05:29:32;;;;;;;8.47;6.00;;;8.30;61.70;;;;;;4970387;28;20456;-44
2022/01/28 05:31:57;;;;;;;9.33;6.03;;;8.00;61.80;;;;;;4969146;28;20435;-44
2022/01/28 05:34:25;;;;;;;10.27;6.17;;;8.00;62.40;;;;;;4967378;28;20389;-44
2022/01/28 05:36:51;;;;;;;9.30;6.67;;;8.00;62.30;;;;;;4971893;28;20278;-44
2022/01/28 05:39:17;;;;;;;8.20;6.43;;;8.00;63.00;;;;;;4970604;28;20554;-43
2022/01/28 05:41:43;;;;;;;10.13;5.93;;;7.90;62.60;;;;;;4972463;28;20235;-44
2022/01/28 05:44:09;;;;;;;11.87;7.40;;;7.80;62.90;;;;;;4972337;28;20453;-43
2022/01/28 05:46:34;;;;;;;9.67;7.13;;;7.90;62.90;;;;;;4970902;28;20643;-45
2022/01/28 05:49:00;;;;;;;10.40;6.73;;;8.10;62.20;;;;;;4972952;28;20518;-44
2022/01/28 05:51:26;;;;;;;7.20;6.20;;;8.20;61.50;;;;;;4972719;28;20860;-43
2022/01/28 05:53:53;;;;;;;11.47;7.87;;;8.30;61.20;;;;;;4969776;28;20637;-43
2022/01/28 05:56:19;;;;;;;11.80;6.97;;;8.40;60.80;;;;;;4973560;28;20674;-44
2022/01/28 05:58:45;;;;;;;7.13;6.20;;;8.20;60.90;;;;;;4972502;28;20442;-44
2022/01/28 06:01:10;;;;;;;6.70;6.03;;;8.20;61.30;;;;;;4966113;28;20450;-44
2022/01/28 06:03:36;;;;;;;10.83;6.33;;;8.30;61.20;;;;;;4970436;28;20275;-44
2022/01/28 06:06:02;;;;;;;10.37;6.20;;;8.10;61.20;;;;;;4964703;28;20199;-44
2022/01/28 06:08:27;;;;;;;10.67;6.97;;;8.10;61.00;;;;;;4971183;28;20274;-44
2022/01/28 06:10:53;;;;;;;11.40;7.13;;;8.10;61.40;;;;;;4974745;28;20245;-44
2022/01/28 06:13:19;;;;;;;10.00;7.17;;;8.00;61.60;;;;;;4972510;28;20199;-44
2022/01/28 06:15:44;;;;;;;8.80;6.70;;;8.00;61.80;;;;;;4968481;28;20230;-43
2022/01/28 06:18:11;;;;;;;10.73;6.70;;;8.00;61.80;;;;;;4966462;28;20235;-43
2022/01/28 06:20:37;;;;;;;13.70;8.20;;;7.80;62.30;;;;;;4972169;28;20195;-43
2022/01/28 06:23:04;;;;;;;11.43;7.50;;;7.70;62.60;;;;;;4973760;28;21021;-43
2022/01/28 06:25:30;;;;;;;9.00;6.77;;;7.80;62.80;;;;;;4973311;28;20678;-43
2022/01/28 06:27:55;;;;;;;16.03;7.47;;;7.90;62.90;;;;;;4969259;28;20442;-43
2022/01/28 06:30:22;;;;;;;9.60;6.70;;;8.00;63.40;;;;;;4970938;28;20458;-43
2022/01/28 06:32:48;;;;;;;9.87;7.40;;;8.20;62.30;;;;;;4968233;28;20199;-43
2022/01/28 06:35:14;;;;;;;11.40;6.57;;;8.60;62.50;;;;;;4971115;28;20493;-43
2022/01/28 06:37:44;;;;;;;9.70;6.63;;;8.80;60.70;;;;;;4971484;28;20485;-43
2022/01/28 06:40:12;;;;;;;13.70;7.20;;;9.00;59.80;;;;;;4973207;28;20221;-43
2022/01/28 06:42:38;;;;;;;10.27;7.30;;;8.90;59.30;;;;;;4970807;28;21036;-43
2022/01/28 06:45:06;;;;;;;11.70;6.90;;;8.70;59.50;;;;;;4970638;28;20454;-43
2022/01/28 06:47:32;;;;;;;15.10;7.80;;;8.70;59.80;;;;;;4967928;28;21104;-43
2022/01/28 06:49:58;;;;;;;11.57;7.43;;;8.60;59.80;;;;;;4971115;28;20450;-43
2022/01/28 06:52:23;;;;;;;8.90;6.67;;;8.50;59.80;;;;;;4981710;28;20449;-43
2022/01/28 06:54:49;;;;;;;9.33;7.60;;;8.40;60.20;;;;;;4975797;28;20605;-43
2022/01/28 06:57:14;;;;;;;15.00;8.00;;;8.40;60.70;;;;;;4972542;28;20199;-43
2022/01/28 06:59:40;;;;;;;11.83;8.00;;;8.50;60.60;;;;;;4971893;28;20267;-43
2022/01/28 07:02:06;;;;;;;8.60;7.70;;;8.50;60.50;;;;;;4970503;28;20210;-43
2022/01/28 07:04:32;;;;;;;11.97;8.00;;;8.50;60.10;;;;;;4971159;28;20238;-43
2022/01/28 07:06:58;;;;;;;11.53;7.17;;;8.60;60.10;;;;;;4966932;28;20442;-43
2022/01/28 07:09:23;;;;;;;14.43;8.10;;;8.60;59.90;;;;;;4967899;28;20202;-43
2022/01/28 07:11:49;;;;;;;9.40;7.00;;;8.60;60.00;;;;;;4971637;28;20207;-44
2022/01/28 07:14:15;;;;;;;9.30;6.80;;;8.80;59.80;;;;;;4969367;28;20673;-43
2022/01/28 07:16:40;;;;;;;10.60;7.07;;;8.80;59.30;;;;;;4965698;28;20207;-43
2022/01/28 07:19:08;;;;;;;9.00;7.63;;;9.10;59.40;;;;;;4971285;28;20203;-43
2022/01/28 07:21:34;;;;;;;10.43;7.97;;;9.00;59.00;;;;;;4970367;28;20187;-43
2022/01/28 07:23:59;;;;;;;13.93;7.30;;;8.90;59.10;;;;;;4970045;28;20953;-43
2022/01/28 07:26:25;;;;;;;9.17;7.40;;;8.90;59.30;;;;;;4970796;28;20609;-44
2022/01/28 07:28:52;;;;;;;13.77;9.97;;;8.80;59.20;;;;;;4968868;28;20198;-43
2022/01/28 07:31:19;;;;;;;12.80;10.50;;;8.90;59.50;;;;;;4969382;28;20199;-43
2022/01/28 07:33:45;;;;;;;13.97;9.67;;;9.00;59.40;;;;;;4965308;28;20513;-43
2022/01/28 07:36:11;;;;;;;10.90;8.10;;;9.30;58.90;;;;;;4970268;28;20545;-43
2022/01/28 07:38:37;;;;;;;16.67;9.90;;;9.40;58.80;;;;;;4969525;28;20530;-43
2022/01/28 07:41:04;;;;;;;11.53;6.70;;;9.60;58.40;;;;;;4975264;28;20328;-43
2022/01/28 07:43:31;;;;;;;11.20;7.20;;;9.70;57.80;;;;;;4971156;28;20203;-46
2022/01/28 07:45:57;;;;;;;11.67;8.33;;;9.70;57.60;;;;;;4970997;28;20446;-44
2022/01/28 07:48:22;;;;;;;9.80;6.93;;;9.60;57.60;;;;;;4974645;28;20893;-42
2022/01/28 07:50:48;;;;;;;9.97;6.60;;;9.50;57.80;;;;;;4976328;28;20562;-43
2022/01/28 07:53:16;;;;;;;11.40;7.07;;;9.20;58.00;;;;;;4976107;28;20203;-43
2022/01/28 07:55:43;;;;;;;11.67;8.00;;;9.10;58.40;;;;;;4973949;28;20250;-42
2022/01/28 07:58:09;;;;;;;9.83;7.07;;;8.90;59.00;;;;;;4972957;28;20443;-42
2022/01/28 08:00:34;;;;;;;9.67;7.80;;;8.90;59.20;;;;;;4975084;28;20450;-42
2022/01/28 08:03:00;;;;;;;15.63;11.10;;;8.70;59.10;;;;;;4974412;28;20192;-42
2022/01/28 08:05:26;;;;;;;10.13;7.77;;;8.70;59.40;;;;;;4971963;28;20246;-42
2022/01/28 08:07:52;;;;;;;14.70;10.00;;;8.60;59.40;;;;;;4974461;28;20204;-42
2022/01/28 08:10:19;;;;;;;8.40;6.40;;;8.60;59.60;;;;;;4971017;28;20447;-43
2022/01/28 08:12:50;;;;;;;9.37;6.93;;;8.70;59.70;;;;;;4969694;28;20260;-43
2022/01/28 08:15:16;;;;;;;11.63;6.67;;;8.50;59.80;;;;;;4972957;28;20486;-42
2022/01/28 08:17:42;;;;;;;10.03;7.07;;;8.60;59.90;;;;;;4970073;28;20973;-43
2022/01/28 08:20:09;;;;;;;10.27;7.13;;;8.70;60.00;;;;;;4971561;28;20442;-42
2022/01/28 08:22:54;;;;;;;12.73;6.80;;;8.60;59.70;;;;;;4970538;28;20909;-42
2022/01/28 08:25:21;;;;;;;14.57;7.47;;;8.50;60.10;;;;;;4972291;28;20919;-42
2022/01/28 08:27:48;;;;;;;9.90;5.83;;;8.50;60.80;;;;;;4971128;28;20522;-42
2022/01/28 08:30:16;;;;;;;12.97;7.00;;;8.50;60.70;;;;;;4976043;28;20435;-43
2022/01/28 08:32:42;;;;;;;13.23;7.30;;;8.50;60.70;;;;;;4971068;28;20435;-43
2022/01/28 08:35:09;;;;;;;9.20;6.87;;;8.50;60.70;;;;;;4970889;28;20530;-43
2022/01/28 08:37:34;;;;;;;10.93;5.30;;;8.50;60.60;;;;;;4970770;28;20530;-43
2022/01/28 08:40:00;;;;;;;8.20;6.10;;;8.50;60.10;;;;;;4973698;28;20521;-43
2022/01/28 08:42:27;;;;;;;10.37;6.37;;;8.70;60.00;;;;;;4970144;28;20230;-43
2022/01/28 08:44:53;;;;;;;12.20;6.47;;;8.80;60.30;;;;;;4970776;28;20462;-43
2022/01/28 08:47:18;;;;;;;11.30;6.83;;;8.60;59.40;;;;;;4965688;28;20438;-43
2022/01/28 08:49:45;;;;;;;7.00;5.10;;;8.60;59.70;;;;;;4974089;28;20274;-43
2022/01/28 08:52:11;;;;;;;8.37;6.40;;;8.70;59.70;;;;;;4969575;28;20716;-42
2022/01/28 08:54:37;;;;;;;6.93;5.83;;;8.70;59.40;;;;;;4970135;28;20576;-42
2022/01/28 08:57:02;;;;;;;8.23;5.73;;;9.00;59.10;;;;;;4974409;28;20187;-43
2022/01/28 08:59:28;;;;;;;9.00;5.70;;;9.20;58.70;;;;;;4972496;28;20200;-42
2022/01/28 09:01:53;;;;;;;6.63;4.73;;;9.30;58.40;;;;;;4974095;28;20626;-43
2022/01/28 09:04:19;;;;;;;7.20;5.77;;;9.30;57.90;;;;;;4970355;28;20199;-43
2022/01/28 09:06:46;;;;;;;8.73;5.50;;;9.10;57.80;;;;;;4970935;28;20199;-42
2022/01/28 09:09:11;;;;;;;7.43;5.40;;;8.90;58.10;;;;;;4976578;28;20195;-42
2022/01/28 09:11:53;;;;;;;7.27;5.13;;;8.80;58.70;;;;;;4973643;28;20442;-42
2022/01/28 09:14:21;;;;;;;7.27;4.97;;;8.80;58.60;;;;;;4976032;28;20235;-43
2022/01/28 09:16:47;;;;;;;6.27;4.33;;;8.90;58.70;;;;;;4972695;28;20457;-42
2022/01/28 09:19:12;;;;;;;8.57;4.70;;;8.90;58.60;;;;;;4972499;28;20496;-43
2022/01/28 09:21:38;;;;;;;4.57;4.13;;;8.90;58.90;;;;;;4976999;28;20460;-43
2022/01/28 09:24:04;;;;;;;8.70;5.03;;;8.90;58.30;;;;;;4973780;28;20282;-42
2022/01/28 09:26:30;;;;;;;7.93;4.67;;;9.00;58.20;;;;;;4973430;28;20265;-42
2022/01/28 09:28:56;;;;;;;7.63;4.50;;;9.20;58.30;;;;;;4974703;28;20522;-42
2022/01/28 09:31:22;;;;;;;7.80;5.13;;;9.30;57.90;;;;;;4974599;28;20226;-42
2022/01/28 09:33:47;;;;;;;9.30;5.07;;;9.10;57.70;;;;;;4972477;28;20973;-43
2022/01/28 09:36:13;;;;;;;6.43;4.73;;;9.10;58.10;;;;;;4974075;28;20680;-43
2022/01/28 09:38:39;;;;;;;6.37;3.90;;;9.40;58.60;;;;;;4974666;28;20555;-43
2022/01/28 09:41:06;;;;;;;8.03;4.87;;;9.60;58.50;;;;;;4980640;28;20232;-43
2022/01/28 09:43:32;;;;;;;9.17;5.17;;;9.70;57.50;;;;;;4974383;28;20667;-43
2022/01/28 09:45:58;;;;;;;9.03;4.70;;;9.90;57.60;;;;;;4979193;28;20522;-44
2022/01/28 09:48:24;;;;;;;5.57;3.70;;;9.90;56.80;;;;;;4974771;28;20522;-44
2022/01/28 09:50:50;;;;;;;6.70;3.90;;;10.10;55.80;;;;;;4974072;28;20442;-42
2022/01/28 09:53:17;;;;;;;4.90;4.13;;;9.80;56.20;;;;;;4974047;28;20605;-43
2022/01/28 09:55:45;;;;;;;8.60;4.07;;;10.00;55.60;;;;;;4972973;28;20797;-43
2022/01/28 09:58:11;;;;;;;10.67;5.40;;;10.20;55.50;;;;;;4970791;28;20508;-43
2022/01/28 10:00:37;;;;;;;12.20;4.70;;;10.40;55.10;;;;;;4961408;28;20853;-43
2022/01/28 10:03:05;;;;;;;8.43;4.50;;;10.30;54.30;;;;;;4976969;28;20435;-43
2022/01/28 10:05:38;;;;;;;6.93;3.87;;;10.40;53.70;;;;;;4971637;28;20457;-43
2022/01/28 10:08:23;;;;;;;6.13;3.47;;;10.50;53.80;;;;;;4971350;28;20438;-43
2022/01/28 10:11:09;;;;;;;7.50;3.17;;;10.40;53.20;;;;;;4970473;28;20446;-43
2022/01/28 10:13:54;;;;;;;3.70;2.83;;;10.40;53.80;;;;;;4971395;28;20947;-43
2022/01/28 10:16:22;;;;;;;5.63;4.30;;;10.50;54.20;;;;;;4976778;28;20548;-43
2022/01/28 10:18:50;;;;;;;4.30;2.73;;;10.60;54.00;;;;;;4971136;28;20433;-43
2022/01/28 10:21:25;;;;;;;5.73;2.97;;;10.40;53.70;;;;;;4975149;28;20864;-42
2022/01/28 10:24:13;;;;;;;6.13;3.10;;;10.00;53.60;;;;;;4974243;28;20459;-43
2022/01/28 10:26:46;;;;;;;7.67;3.20;;;10.00;53.90;;;;;;4967359;28;20449;-43
2022/01/28 10:29:33;;;;;;;4.73;2.70;;;9.90;55.00;;;;;;4970702;28;20453;-42
2022/01/28 10:32:09;;;;;;;11.30;3.00;;;9.90;54.80;;;;;;4972397;28;20434;-43
2022/01/28 10:34:49;;;;;;;9.23;2.77;;;9.90;54.60;;;;;;4973262;28;20979;-43
2022/01/28 10:37:24;;;;;;;3.60;2.93;;;10.00;54.20;;;;;;4970104;28;20441;-43
2022/01/28 10:40:09;;;;;;;5.90;2.50;;;10.20;53.90;;;;;;4972837;28;20504;-43
2022/01/28 10:42:43;;;;;;;4.97;2.83;;;10.30;53.20;;;;;;4972729;28;20455;-43
2022/01/28 10:45:15;;;;;;;4.20;2.83;;;10.20;53.60;;;;;;4972799;28;20486;-42
2022/01/28 10:47:41;;;;;;;6.17;2.80;;;10.50;53.80;;;;;;4970871;28;20461;-42
2022/01/28 10:50:22;;;;;;;7.17;2.40;;;10.60;52.30;;;;;;4965428;28;20474;-42
2022/01/28 10:53:01;;;;;;;12.23;2.97;;;10.60;52.00;;;;;;4968842;28;20450;-42
2022/01/28 10:55:29;;;;;;;3.90;2.20;;;10.60;52.10;;;;;;4970583;28;20485;-42
2022/01/28 10:57:57;;;;;;;6.00;2.37;;;10.70;51.80;;;;;;4970659;28;20438;-42
2022/01/28 11:00:27;;;;;;;6.10;2.93;;;10.80;51.70;;;;;;4970812;28;20521;-42
2022/01/28 11:02:54;;;;;;;6.20;2.60;;;10.90;51.50;;;;;;4972605;28;20851;-42
2022/01/28 11:05:21;;;;;;;4.20;2.53;;;11.10;51.30;;;;;;4972217;28;20427;-43
2022/01/28 11:07:48;;;;;;;5.40;2.10;;;11.20;51.00;;;;;;4968877;28;20457;-43
2022/01/28 11:10:14;;;;;;;6.73;2.77;;;11.50;50.70;;;;;;4971717;28;20439;-42
2022/01/28 11:12:40;;;;;;;5.53;2.47;;;11.60;50.30;;;;;;4973978;28;20446;-42
2022/01/28 11:15:06;;;;;;;4.07;2.30;;;11.30;49.60;;;;;;4978525;28;20974;-42
2022/01/28 11:17:32;;;;;;;5.97;2.23;;;10.90;49.10;;;;;;4971333;28;20997;-42
2022/01/28 11:19:59;;;;;;;3.63;2.57;;;10.90;49.90;;;;;;4971978;28;20529;-42
2022/01/28 11:22:39;;;;;;;3.93;2.43;;;11.00;50.30;;;;;;4970421;28;20558;-42
2022/01/28 11:25:35;;;;;;;5.93;2.37;;;11.10;50.20;;;;;;4968186;28;20834;-42
2022/01/28 11:28:06;;;;;;;5.20;2.30;;;10.90;50.10;;;;;;4966847;28;20590;-42
2022/01/28 11:30:31;;;;;;;5.47;2.70;;;10.80;49.80;;;;;;4968319;28;20525;-42
2022/01/28 11:33:06;;;;;;;3.77;2.33;;;10.70;50.30;;;;;;4973390;28;20551;-42
2022/01/28 11:35:33;;;;;;;7.13;2.57;;;10.70;50.90;;;;;;4970905;28;20704;-42
2022/01/28 11:38:04;;;;;;;7.77;3.30;;;10.80;51.20;;;;;;4970898;28;20450;-42
2022/01/28 11:40:42;;;;;;;6.90;3.00;;;10.70;50.90;;;;;;4975495;28;20474;-42
2022/01/28 11:43:25;;;;;;;10.30;3.03;;;10.40;51.40;;;;;;4976139;28;20438;-42
2022/01/28 11:46:19;;;;;;;5.77;3.00;;;10.70;51.60;;;;;;4972233;28;20446;-42
2022/01/28 11:49:02;;;;;;;6.87;3.50;;;10.80;51.60;;;;;;4972143;28;20806;-42
2022/01/28 11:51:41;;;;;;;3.37;2.50;;;10.80;51.30;;;;;;4969129;28;20455;-42
2022/01/28 11:54:08;;;;;;;4.47;2.80;;;10.90;51.40;;;;;;4969465;28;20478;-43
2022/01/28 11:56:38;;;;;;;5.30;3.10;;;10.80;50.90;;;;;;4971134;28;21035;-42
2022/01/28 11:59:07;;;;;;;5.67;3.10;;;10.50;51.80;;;;;;4969700;28;20521;-42
2022/01/28 12:01:39;;;;;;;7.37;3.30;;;10.70;53.80;;;;;;4968885;28;20493;-42
2022/01/28 12:04:31;;;;;;;6.33;4.17;;;10.90;54.20;;;;;;4971510;28;20439;-42
2022/01/28 12:07:05;;;;;;;9.37;4.03;;;11.10;54.30;;;;;;4971311;28;20454;-42
2022/01/28 12:09:35;;;;;;;10.23;4.30;;;10.70;54.20;;;;;;4971276;28;20441;-42
2022/01/28 12:12:01;;;;;;;12.70;4.47;;;10.40;54.10;;;;;;4971639;28;20438;-43
2022/01/28 12:14:49;;;;;;;6.90;4.00;;;10.40;54.80;;;;;;4972221;28;20976;-43
2022/01/28 12:17:30;;;;;;;4.90;3.20;;;10.80;55.00;;;;;;4968167;28;20458;-43
2022/01/28 12:20:24;;;;;;;7.27;3.70;;;10.50;53.20;;;;;;4972009;28;20447;-43
2022/01/28 12:23:11;;;;;;;8.60;3.80;;;10.50;53.90;;;;;;4963148;28;20885;-43
2022/01/28 12:25:36;;;;;;;8.07;3.43;;;10.70;53.80;;;;;;4973786;28;20988;-43
2022/01/28 12:28:17;;;;;;;6.70;4.17;;;10.80;52.40;;;;;;4971083;28;20521;-43
2022/01/28 12:30:44;;;;;;;7.63;4.10;;;10.70;52.10;;;;;;4969740;28;20199;-43
2022/01/28 12:33:11;;;;;;;4.80;3.57;;;10.50;53.20;;;;;;4972060;28;20451;-43
2022/01/28 12:35:42;;;;;;;6.47;3.77;;;10.70;53.20;;;;;;4975085;28;20487;-43
2022/01/28 12:38:11;;;;;;;6.90;4.50;;;10.80;52.90;;;;;;4969720;28;20451;-43
2022/01/28 12:40:39;;;;;;;10.20;4.33;;;10.90;52.90;;;;;;4975676;28;20466;-43
2022/01/28 12:43:07;;;;;;;5.97;3.27;;;10.90;52.20;;;;;;4973335;28;20443;-44
2022/01/28 12:45:33;;;;;;;8.37;3.80;;;10.80;51.10;;;;;;4976937;28;20439;-43
2022/01/28 12:47:59;;;;;;;4.77;3.53;;;10.80;51.70;;;;;;4973375;28;20450;-43
2022/01/28 12:50:25;;;;;;;6.67;3.53;;;10.70;52.40;;;;;;4962505;28;20509;-43
2022/01/28 12:52:51;;;;;;;8.60;4.90;;;10.70;52.30;;;;;;4975304;28;20443;-43
2022/01/28 12:55:17;;;;;;;10.33;4.83;;;10.70;52.50;;;;;;4980609;28;20493;-42
2022/01/28 12:57:45;;;;;;;9.97;4.50;;;10.70;52.30;;;;;;4975240;28;20571;-43
2022/01/28 13:00:12;;;;;;;12.40;6.93;;;10.90;52.20;;;;;;4973985;28;20191;-42
2022/01/28 13:02:37;;;;;;;4.50;3.90;;;10.90;51.80;;;;;;4973591;28;20435;-43
2022/01/28 13:10:25;;;;;;;9.70;4.03;;;10.90;51.10;;;;;;4970690;28;20485;-43
2022/01/28 13:12:52;;;;;;;5.00;4.27;;;10.80;51.50;;;;;;4968685;28;20819;-44
2022/01/28 13:15:18;;;;;;;6.53;4.43;;;10.70;52.00;;;;;;4975142;28;20515;-43
2022/01/28 13:18:00;;;;;;;6.07;4.33;;;10.70;52.70;;;;;;4976136;28;20450;-43
2022/01/28 13:20:39;;;;;;;9.93;5.00;;;10.30;53.40;;;;;;4976155;28;20248;-43
2022/01/28 13:23:05;;;;;;;7.07;4.20;;;10.20;53.30;;;;;;4973591;28;20957;-43
2022/01/28 13:25:31;;;;;;;4.83;4.27;;;10.50;53.60;;;;;;4973357;28;20473;-43
2022/01/28 13:28:00;;;;;;;6.07;4.23;;;10.70;53.00;;;;;;4974993;28;20930;-43
2022/01/28 13:30:27;;;;;;;10.97;5.10;;;10.80;53.70;;;;;;4963008;28;20549;-43
2022/01/28 13:33:00;;;;;;;8.67;5.33;;;10.90;52.90;;;;;;4974805;28;20442;-43
2022/01/28 13:35:25;;;;;;;10.37;5.33;;;10.50;52.90;;;;;;4970260;28;20857;-43
2022/01/28 13:37:53;;;;;;;7.20;5.70;;;10.60;54.10;;;;;;4973619;28;20440;-43
2022/01/28 13:40:23;;;;;;;12.40;6.17;;;10.50;54.20;;;;;;4979198;28;20238;-43
2022/01/28 13:43:14;;;;;;;8.43;5.53;;;10.40;54.10;;;;;;4970042;28;20450;-44
2022/01/28 13:45:53;;;;;;;8.87;6.33;;;10.40;53.70;;;;;;4970861;28;20447;-43
2022/01/28 13:48:38;;;;;;;10.33;6.07;;;10.30;53.80;;;;;;4974145;28;20450;-43
2022/01/28 13:51:05;;;;;;;10.77;4.87;;;10.30;53.60;;;;;;4975450;28;21083;-43
2022/01/28 13:56:36;;;;;;;9.53;7.00;;;10.40;53.50;;;;;;4971233;28;20430;-43
2022/01/28 13:59:15;;;;;;;7.33;5.10;;;10.40;53.60;;;;;;4971944;28;20469;-43
2022/01/28 14:01:49;;;;;;;9.30;5.40;;;10.50;53.60;;;;;;4961464;28;20450;-43
2022/01/28 14:04:21;;;;;;;10.73;5.73;;;10.50;53.50;;;;;;4973152;28;20973;-43
2022/01/28 14:06:46;;;;;;;8.10;5.33;;;10.70;52.50;;;;;;4975103;28;20807;-43
2022/01/28 14:09:15;;;;;;;9.13;5.80;;;10.40;52.10;;;;;;4973195;28;20461;-43
2022/01/28 14:11:48;;;;;;;8.63;5.17;;;10.20;52.50;;;;;;4973755;28;20262;-43
2022/01/28 14:14:24;;;;;;;10.30;6.83;;;10.40;53.00;;;;;;4970972;28;20525;-43
2022/01/28 14:16:59;;;;;;;7.30;5.33;;;10.50;52.80;;;;;;4987935;28;20446;-43
2022/01/28 14:19:26;;;;;;;9.50;6.80;;;10.70;53.20;;;;;;4972051;28;20438;-43
2022/01/28 14:21:53;;;;;;;8.27;6.00;;;10.70;53.20;;;;;;4972902;28;20954;-43